createdAt,value
2022-10-06T00:02:06.063Z,24.10
2022-10-06T00:04:36.026Z,24.10
2022-10-06T00:07:06.105Z,24.20
2022-10-06T00:09:36.016Z,24.10
2022-10-06T00:12:06.162Z,24.20
2022-10-06T00:14:36.342Z,24.10
2022-10-06T00:17:06.658Z,24.10
2022-10-06T00:19:36.595Z,24.10
2022-10-06T00:22:06.556Z,24.10
2022-10-06T00:24:36.485Z,24.20
2022-10-06T00:27:06.482Z,24.20
2022-10-06T00:29:36.382Z,24.20
2022-10-06T00:32:06.307Z,24.20
2022-10-06T00:34:37.729Z,24.20
2022-10-06T00:37:07.685Z,24.20
2022-10-06T00:39:37.620Z,24.20
2022-10-06T00:42:07.833Z,24.30
2022-10-06T00:44:38.064Z,24.20
2022-10-06T00:47:07.980Z,24.20
2022-10-06T00:49:38.210Z,24.20
2022-10-06T00:52:12.958Z,24.10
2022-10-06T00:54:42.959Z,22.00
2022-10-06T00:57:13.859Z,18.80
2022-10-06T02:13:46.486Z,20.70
2022-10-06T02:16:17.091Z,23.90
2022-10-06T02:18:47.260Z,23.60
2022-10-06T02:21:22.268Z,23.60
2022-10-06T02:23:52.764Z,23.60
2022-10-06T02:26:22.794Z,23.60
2022-10-06T02:28:53.814Z,23.70
2022-10-06T02:31:27.018Z,23.70
2022-10-06T02:33:58.251Z,23.80
2022-10-06T02:36:28.171Z,23.80
2022-10-06T02:38:58.738Z,23.80
2022-10-06T02:41:28.712Z,23.80
2022-10-06T02:43:58.835Z,23.80
2022-10-06T02:46:28.815Z,23.80
2022-10-06T02:48:58.800Z,23.80
2022-10-06T02:51:29.431Z,23.80
2022-10-06T02:53:59.319Z,23.80
2022-10-06T02:56:29.605Z,23.90
2022-10-06T02:59:00.052Z,23.90
2022-10-06T03:01:33.055Z,23.90
2022-10-06T03:04:12.945Z,23.90
2022-10-06T03:06:44.768Z,23.90
2022-10-06T03:09:29.711Z,23.90
2022-10-06T03:12:00.039Z,23.90
2022-10-06T03:14:41.750Z,23.90
2022-10-06T03:17:12.027Z,23.90
2022-10-06T03:19:49.443Z,23.90
2022-10-06T03:22:19.878Z,23.90
2022-10-06T03:24:55.944Z,23.90
2022-10-06T03:27:26.540Z,24.00
2022-10-06T03:30:02.173Z,24.10
2022-10-06T03:32:34.662Z,24.10
2022-10-06T03:35:05.046Z,24.10
2022-10-06T03:37:36.660Z,24.00
2022-10-06T03:40:07.658Z,24.00
2022-10-06T03:42:38.307Z,24.00
2022-10-06T03:45:08.799Z,24.00
2022-10-06T03:47:38.717Z,23.90
2022-10-06T03:50:09.367Z,23.90
2022-10-06T03:52:39.537Z,23.90
2022-10-06T03:55:09.961Z,23.90
2022-10-06T03:57:40.188Z,23.80
2022-10-06T04:00:10.974Z,23.90
2022-10-06T04:02:42.090Z,23.90
2022-10-06T04:05:13.409Z,23.90
2022-10-06T04:07:44.315Z,23.90
2022-10-06T04:10:15.288Z,23.90
2022-10-06T04:12:45.561Z,23.90
2022-10-06T04:15:19.542Z,23.90
2022-10-06T04:17:49.773Z,23.90
2022-10-06T04:20:22.665Z,23.90
2022-10-06T04:22:53.224Z,23.90
2022-10-06T04:25:23.295Z,23.90
2022-10-06T04:27:54.528Z,23.90
2022-10-06T04:30:25.929Z,23.90
2022-10-06T04:32:56.398Z,23.90
2022-10-06T04:35:28.395Z,24.00
2022-10-06T04:37:58.757Z,24.00
2022-10-06T04:40:28.920Z,24.00
2022-10-06T04:42:59.022Z,24.00
2022-10-06T04:45:29.383Z,24.00
2022-10-06T04:47:59.569Z,24.00
2022-10-06T04:50:29.948Z,23.90
2022-10-06T04:53:15.386Z,23.90
2022-10-06T04:55:46.672Z,23.90
2022-10-06T04:58:19.777Z,23.90
2022-10-06T05:00:50.849Z,24.00
2022-10-06T05:03:21.143Z,24.00
2022-10-06T05:05:52.057Z,24.00
2022-10-06T05:08:22.991Z,24.00
2022-10-06T05:10:53.352Z,23.90
2022-10-06T05:13:23.367Z,24.00
2022-10-06T05:16:00.739Z,24.00
2022-10-06T05:18:34.529Z,23.90
2022-10-06T05:21:09.605Z,23.90
2022-10-06T05:23:41.693Z,23.90
2022-10-06T05:26:16.046Z,23.90
2022-10-06T05:28:47.738Z,23.90
2022-10-06T05:31:19.587Z,23.90
2022-10-06T05:34:15.057Z,23.80
2022-10-06T05:36:50.174Z,23.60
2022-10-06T05:39:20.348Z,23.50
2022-10-06T05:41:57.526Z,23.50
2022-10-06T05:44:28.602Z,23.40
2022-10-06T05:47:03.191Z,23.30
2022-10-06T05:49:33.592Z,23.20
2022-10-06T05:52:06.197Z,23.20
2022-10-06T05:54:39.597Z,23.10
2022-10-06T05:57:11.203Z,23.20
2022-10-06T05:59:41.869Z,23.30
2022-10-06T06:02:13.738Z,23.30
2022-10-06T06:04:46.239Z,23.40
2022-10-06T06:07:16.476Z,23.40
2022-10-06T06:09:48.250Z,23.40
2022-10-06T06:12:18.823Z,23.50
2022-10-06T06:15:33.790Z,23.50
2022-10-06T06:18:07.246Z,23.50
2022-10-06T06:20:38.489Z,23.50
2022-10-06T06:23:08.653Z,23.50
2022-10-06T06:25:38.886Z,23.60
2022-10-06T06:28:10.116Z,23.50
2022-10-06T06:30:40.169Z,23.60
2022-10-06T06:33:10.924Z,23.60
2022-10-06T06:35:41.293Z,23.60
2022-10-06T06:38:13.064Z,23.60
